Time;durP1;ratioP1;P1;durP2;ratioP2;P2;SDS_P1;SDS_P2;PMS_P1;PMS_P2;Temp;Humidity;BMP_temperature;BMP_pressure;BME280_temperature;BME280_humidity;BME280_pressure;Samples;Min_cycle;Max_cycle;Signal;HPM_P1;HPM_P2
2024/01/06 00:02:09;;;;;;;43.50;24.30;;;;;;;4.79;100.00;95404.98;108226;1283;22565;-85
2024/01/06 00:04:36;;;;;;;31.80;17.00;;;;;;;4.81;100.00;95396.03;108158;1283;137732;-85
2024/01/06 00:07:03;;;;;;;27.00;14.20;;;;;;;4.81;100.00;95395.55;108344;1283;23367;-86
2024/01/06 00:09:30;;;;;;;37.50;19.10;;;;;;;4.88;100.00;95397.34;108237;1283;138573;-85
2024/01/06 00:11:57;;;;;;;49.60;25.40;;;;;;;4.94;100.00;95401.88;108197;1284;22769;-86
2024/01/06 00:14:23;;;;;;;44.00;24.70;;;;;;;4.98;100.00;95397.59;108226;1284;25902;-85
2024/01/06 00:16:50;;;;;;;54.00;34.60;;;;;;;5.03;100.00;95400.17;108165;1284;138616;-84
2024/01/06 00:19:17;;;;;;;145.90;56.90;;;;;;;5.06;100.00;95393.77;108249;1282;22567;-85
2024/01/06 00:21:44;;;;;;;45.40;29.60;;;;;;;5.07;100.00;95382.88;108103;1280;138184;-85
2024/01/06 00:24:10;;;;;;;42.40;23.10;;;;;;;5.05;100.00;95376.52;108350;1282;22531;-87
2024/01/06 00:26:37;;;;;;;36.20;17.60;;;;;;;5.06;100.00;95372.73;108347;1277;22535;-86
2024/01/06 00:29:04;;;;;;;29.60;16.10;;;;;;;5.10;100.00;95369.48;108129;1282;138006;-86
2024/01/06 00:31:30;;;;;;;40.70;22.30;;;;;;;5.13;100.00;95367.99;108262;1282;22550;-87
2024/01/06 00:33:57;;;;;;;30.90;17.10;;;;;;;5.16;100.00;95367.48;108133;1278;138570;-86
2024/01/06 00:36:24;;;;;;;23.10;12.20;;;;;;;5.20;100.00;95369.03;108253;1282;22598;-87
2024/01/06 00:38:50;;;;;;;18.40;10.80;;;;;;;5.25;100.00;95369.12;108250;1275;22565;-86
2024/01/06 00:41:17;;;;;;;19.70;11.30;;;;;;;5.35;100.00;95375.56;108166;1282;138207;-86
2024/01/06 00:43:44;;;;;;;19.60;10.70;;;;;;;5.39;100.00;95374.58;108285;1276;22623;-87
2024/01/06 00:46:10;;;;;;;23.00;12.00;;;;;;;5.41;100.00;95371.80;108123;1282;137766;-85
2024/01/06 00:48:37;;;;;;;15.50;10.00;;;;;;;5.37;100.00;95375.65;108236;1282;22559;-86
2024/01/06 00:51:03;;;;;;;15.40;9.40;;;;;;;5.33;100.00;95378.06;108224;1283;22566;-85
2024/01/06 00:53:31;;;;;;;15.20;10.00;;;;;;;5.32;100.00;95373.38;108210;1282;138216;-87
2024/01/06 00:55:57;;;;;;;19.90;10.50;;;;;;;5.32;100.00;95375.79;108222;1282;25150;-87
2024/01/06 00:58:24;;;;;;;12.20;6.50;;;;;;;5.29;100.00;95375.00;108303;1265;138887;-87
2024/01/06 01:00:50;;;;;;;31.00;15.50;;;;;;;5.25;100.00;95379.85;108311;1275;22554;-86
2024/01/06 01:03:17;;;;;;;23.60;12.60;;;;;;;5.19;100.00;95380.98;108154;1275;138092;-87
2024/01/06 01:05:44;;;;;;;12.50;7.20;;;;;;;5.16;100.00;95376.71;108373;1279;25435;-87
2024/01/06 01:08:10;;;;;;;14.60;6.90;;;;;;;5.13;100.00;95379.48;108242;1274;22533;-87
2024/01/06 01:10:38;;;;;;;16.50;8.60;;;;;;;5.05;100.00;95387.68;108168;1269;137699;-87
2024/01/06 01:13:06;;;;;;;40.50;15.20;;;;;;;4.99;100.00;95382.88;108324;1282;24251;-86
2024/01/06 01:15:32;;;;;;;16.60;7.50;;;;;;;4.96;100.00;95383.30;108243;1275;138639;-88
2024/01/06 01:17:59;;;;;;;9.90;4.80;;;;;;;4.89;100.00;95381.98;108382;1282;22558;-86
2024/01/06 01:20:25;;;;;;;6.80;3.20;;;;;;;4.84;100.00;95381.14;108315;1283;22587;-86
2024/01/06 01:22:52;;;;;;;6.70;3.80;;;;;;;4.80;100.00;95379.85;108226;1282;138333;-86
2024/01/06 01:25:19;;;;;;;7.00;3.30;;;;;;;4.80;100.00;95380.73;108429;1283;23027;-87
2024/01/06 01:27:45;;;;;;;4.70;2.80;;;;;;;4.80;100.00;95378.19;108211;1282;139080;-87
2024/01/06 01:30:13;;;;;;;5.90;3.40;;;;;;;4.80;100.00;95380.34;108329;1275;22524;-85
2024/01/06 01:32:40;;;;;;;5.00;2.90;;;;;;;4.81;100.00;95375.95;108281;1275;24396;-86
2024/01/06 01:35:07;;;;;;;5.40;3.10;;;;;;;4.81;100.00;95381.94;108182;1276;137468;-86
2024/01/06 01:37:34;;;;;;;7.90;3.90;;;;;;;4.78;100.00;95379.03;108209;1280;22579;-85
2024/01/06 01:40:04;;;;;;;13.50;7.10;;;;;;;4.75;100.00;95381.92;108237;1280;137455;-85
2024/01/06 01:42:37;;;;;;;12.40;6.40;;;;;;;4.73;100.00;95379.77;109309;1283;23524;-86
2024/01/06 01:45:05;;;;;;;11.00;5.20;;;;;;;4.72;100.00;95373.70;108523;1275;25432;-86
2024/01/06 01:47:35;;;;;;;5.80;3.40;;;;;;;4.69;100.00;95374.41;108599;1278;23244;-85
2024/01/06 01:50:03;;;;;;;7.30;4.30;;;;;;;4.72;100.00;95372.88;109510;1283;22573;-85
2024/01/06 01:52:32;;;;;;;8.70;3.60;;;;;;;4.73;100.00;95371.23;109452;1283;137192;-86
2024/01/06 01:55:00;;;;;;;5.50;2.60;;;;;;;4.75;100.00;95369.80;109490;1283;22588;-86
2024/01/06 01:57:30;;;;;;;6.20;3.10;;;;;;;4.79;100.00;95373.46;109429;1273;137461;-86
2024/01/06 01:59:57;;;;;;;15.30;7.60;;;;;;;4.84;100.00;95378.45;109443;1282;22808;-86
2024/01/06 02:02:28;;;;;;;10.20;6.20;;;;;;;4.85;100.00;95381.86;109584;1279;22577;-86
2024/01/06 02:04:56;;;;;;;20.70;11.50;;;;;;;4.88;100.00;95388.46;109383;1276;136966;-84
2024/01/06 02:07:25;;;;;;;16.90;9.50;;;;;;;4.81;100.00;95391.59;109492;1278;22986;-86
2024/01/06 02:09:54;;;;;;;20.10;10.90;;;;;;;4.77;100.00;95395.41;109421;1282;136799;-86
2024/01/06 02:12:42;;;;;;;16.30;8.80;;;;;;;4.77;100.00;95403.75;109545;1282;22204;-86
2024/01/06 02:15:14;;;;;;;15.20;8.70;;;;;;;4.79;100.00;95403.51;109467;1274;139442;-87
2024/01/06 02:17:41;;;;;;;15.50;8.40;;;;;;;4.84;100.00;95404.38;109230;1273;22531;-86
2024/01/06 02:20:19;;;;;;;16.60;8.10;;;;;;;4.90;100.00;95394.38;108625;1282;22707;-86
2024/01/06 02:22:46;;;;;;;18.70;10.90;;;;;;;4.95;100.00;95394.02;109753;1275;138348;-86
2024/01/06 02:25:13;;;;;;;14.40;9.20;;;;;;;4.99;100.00;95395.27;109552;1277;25436;-86
2024/01/06 02:27:40;;;;;;;16.00;9.10;;;;;;;4.99;100.00;95388.59;108314;1278;138409;-86
2024/01/06 02:30:07;;;;;;;17.80;10.80;;;;;;;4.96;100.00;95384.73;108366;1282;24226;-85
2024/01/06 02:32:34;;;;;;;17.10;9.40;;;;;;;4.96;100.00;95382.33;108266;1282;22557;-85
2024/01/06 02:35:01;;;;;;;17.80;10.00;;;;;;;4.95;100.00;95382.34;108286;1282;137483;-86
2024/01/06 02:37:27;;;;;;;18.50;9.70;;;;;;;4.95;100.00;95381.90;108345;1281;22520;-86
2024/01/06 02:39:54;;;;;;;16.40;8.20;;;;;;;4.96;100.00;95377.41;108249;1282;137852;-87
2024/01/06 02:42:21;;;;;;;13.00;7.20;;;;;;;4.98;100.00;95375.10;108412;1278;23038;-86
2024/01/06 02:44:47;;;;;;;11.30;7.40;;;;;;;4.97;100.00;95374.21;108353;1283;22636;-86
2024/01/06 02:47:14;;;;;;;13.00;7.60;;;;;;;4.98;100.00;95377.00;108228;1282;138306;-86
2024/01/06 02:49:41;;;;;;;15.30;8.90;;;;;;;4.98;100.00;95373.09;109377;1282;22564;-86
2024/01/06 02:52:09;;;;;;;15.50;9.50;;;;;;;4.98;100.00;95374.98;109486;1277;138616;-86
2024/01/06 02:54:37;;;;;;;64.30;38.60;;;;;;;4.92;100.00;95378.77;109537;1274;22584;-86
2024/01/06 02:57:04;;;;;;;80.90;53.80;;;;;;;4.65;100.00;95383.06;108874;1278;22584;-87
2024/01/06 02:59:32;;;;;;;82.00;52.30;;;;;;;4.40;100.00;95383.58;108368;1283;25027;-87
2024/01/06 03:01:59;;;;;;;80.10;50.40;;;;;;;4.33;100.00;95381.44;108441;1282;24214;-87
2024/01/06 03:04:26;;;;;;;80.40;49.60;;;;;;;4.26;100.00;95379.52;108229;1281;137643;-87
2024/01/06 03:06:53;;;;;;;67.30;44.20;;;;;;;4.16;100.00;95378.56;108319;1282;26428;-86
2024/01/06 03:09:20;;;;;;;80.40;51.00;;;;;;;4.11;100.00;95381.70;108252;1280;138930;-87
2024/01/06 03:11:47;;;;;;;78.00;49.60;;;;;;;4.08;100.00;95381.01;108358;1278;22577;-87
2024/01/06 03:14:13;;;;;;;63.50;40.30;;;;;;;4.04;100.00;95380.33;108394;1281;26843;-86
2024/01/06 03:16:40;;;;;;;58.80;38.80;;;;;;;4.09;100.00;95377.02;108681;1275;138846;-87
2024/01/06 03:19:07;;;;;;;39.20;25.50;;;;;;;4.13;100.00;95374.88;108350;1281;22570;-86
2024/01/06 03:21:33;;;;;;;59.60;39.30;;;;;;;4.17;100.00;95373.95;109715;1278;138754;-87
2024/01/06 03:24:00;;;;;;;85.60;52.80;;;;;;;4.18;100.00;95373.50;109685;1276;23233;-87
2024/01/06 03:26:27;;;;;;;74.90;45.60;;;;;;;4.13;100.00;95379.54;108319;1284;24609;-87
2024/01/06 03:28:54;;;;;;;64.70;41.30;;;;;;;4.12;100.00;95380.05;108162;1281;138553;-87
2024/01/06 03:31:22;;;;;;;39.50;25.70;;;;;;;4.15;100.00;95376.70;108278;1281;25432;-87
2024/01/06 03:33:48;;;;;;;24.30;16.50;;;;;;;4.22;100.00;95378.09;108260;1280;137820;-87
2024/01/06 03:36:16;;;;;;;17.50;10.20;;;;;;;4.28;100.00;95366.98;108308;1277;26025;-87
2024/01/06 03:38:43;;;;;;;13.30;8.10;;;;;;;4.34;100.00;95374.37;108298;1278;22523;-86
2024/01/06 03:41:09;;;;;;;9.50;6.30;;;;;;;4.42;100.00;95372.09;108099;1284;138197;-87
2024/01/06 03:43:36;;;;;;;8.30;4.40;;;;;;;4.50;100.00;95369.43;108289;1284;22544;-87
2024/01/06 03:46:03;;;;;;;8.60;4.40;;;;;;;4.58;100.00;95368.64;108134;1284;138335;-87
2024/01/06 03:48:30;;;;;;;10.50;4.60;;;;;;;4.66;100.00;95367.88;108300;1277;22535;-87
2024/01/06 03:50:56;;;;;;;9.10;4.90;;;;;;;4.74;100.00;95368.68;108302;1283;23743;-87
2024/01/06 03:53:23;;;;;;;11.50;6.20;;;;;;;4.81;100.00;95370.02;108278;1282;138940;-87
2024/01/06 03:55:50;;;;;;;10.10;5.40;;;;;;;4.85;100.00;95369.40;108469;1278;25464;-87
2024/01/06 03:58:16;;;;;;;10.30;5.90;;;;;;;4.87;100.00;95372.48;108268;1283;137668;-87
2024/01/06 04:00:43;;;;;;;12.10;6.20;;;;;;;4.87;100.00;95371.92;108348;1278;25441;-87
2024/01/06 04:03:09;;;;;;;12.00;7.80;;;;;;;4.91;100.00;95374.87;108287;1283;137797;-86
2024/01/06 04:05:37;;;;;;;12.60;7.70;;;;;;;4.96;100.00;95377.56;108304;1281;22570;-87
2024/01/06 04:08:04;;;;;;;13.40;7.90;;;;;;;5.00;100.00;95380.91;108390;1282;23395;-87
2024/01/06 04:10:33;;;;;;;17.30;7.00;;;;;;;5.03;100.00;95383.02;108150;1284;138178;-86
2024/01/06 04:12:59;;;;;;;10.20;6.80;;;;;;;5.04;100.00;95388.49;108316;1284;22539;-86
2024/01/06 04:15:26;;;;;;;11.70;7.50;;;;;;;5.02;100.00;95393.55;108188;1284;138472;-87
2024/01/06 04:17:54;;;;;;;14.20;7.60;;;;;;;5.06;100.00;95398.27;108311;1284;22559;-87
2024/01/06 04:20:20;;;;;;;14.50;8.30;;;;;;;5.09;100.00;95395.86;108285;1284;22516;-87
2024/01/06 04:22:47;;;;;;;10.30;6.90;;;;;;;5.15;100.00;95396.42;108180;1276;138495;-87
2024/01/06 04:25:14;;;;;;;11.70;7.20;;;;;;;5.20;100.00;95396.65;108295;1280;24061;-87
2024/01/06 04:27:40;;;;;;;18.80;9.60;;;;;;;5.25;100.00;95400.10;108223;1271;138218;-87
2024/01/06 04:30:07;;;;;;;34.80;16.80;;;;;;;5.29;100.00;95411.77;108350;1282;24252;-86
2024/01/06 04:32:34;;;;;;;22.60;11.50;;;;;;;5.31;100.00;95409.70;108453;1278;25137;-88
2024/01/06 04:35:01;;;;;;;18.10;10.00;;;;;;;5.30;100.00;95412.70;108270;1275;139571;-87
2024/01/06 04:37:27;;;;;;;14.20;7.20;;;;;;;5.28;100.00;95409.15;108367;1282;22593;-86
2024/01/06 04:39:54;;;;;;;13.30;6.90;;;;;;;5.27;100.00;95410.98;108264;1282;137870;-85
2024/01/06 04:42:22;;;;;;;9.70;6.20;;;;;;;5.25;100.00;95409.14;108442;1281;22620;-86
2024/01/06 04:44:49;;;;;;;10.10;6.00;;;;;;;5.25;100.00;95404.38;108447;1282;23383;-86
2024/01/06 04:47:16;;;;;;;9.10;5.50;;;;;;;5.24;100.00;95397.27;109767;1278;138598;-86
2024/01/06 04:49:43;;;;;;;11.40;5.40;;;;;;;5.22;100.00;95390.86;109508;1278;22530;-85
2024/01/06 04:52:10;;;;;;;8.10;5.30;;;;;;;5.22;100.00;95389.44;108212;1282;138297;-86
2024/01/06 04:54:36;;;;;;;13.60;6.70;;;;;;;5.25;100.00;95388.49;108301;1282;22596;-86
2024/01/06 04:57:04;;;;;;;10.10;5.10;;;;;;;5.32;100.00;95391.72;108377;1283;22640;-86
2024/01/06 04:59:31;;;;;;;7.40;5.10;;;;;;;5.32;100.00;95391.18;108297;1280;137931;-85
2024/01/06 05:01:58;;;;;;;9.90;4.70;;;;;;;5.28;100.00;95387.83;108462;1282;22552;-85
2024/01/06 05:04:25;;;;;;;8.30;5.10;;;;;;;5.25;100.00;95386.18;108245;1278;137635;-86
2024/01/06 05:06:51;;;;;;;7.80;4.20;;;;;;;5.20;100.00;95378.62;108421;1283;23218;-86
2024/01/06 05:09:20;;;;;;;6.10;4.20;;;;;;;5.18;100.00;95378.77;108355;1278;138523;-86
2024/01/06 05:11:46;;;;;;;7.10;4.40;;;;;;;5.18;100.00;95379.40;108345;1271;23173;-87
2024/01/06 05:14:13;;;;;;;5.80;4.90;;;;;;;5.23;100.00;95381.80;108387;1277;23894;-87
2024/01/06 05:16:40;;;;;;;8.50;3.80;;;;;;;5.29;100.00;95379.39;108226;1278;138288;-86
2024/01/06 05:19:06;;;;;;;7.60;3.90;;;;;;;5.28;100.00;95377.98;108337;1283;25276;-87
2024/01/06 05:21:33;;;;;;;6.40;3.80;;;;;;;5.24;100.00;95381.81;108442;1283;138631;-87
2024/01/06 05:23:59;;;;;;;4.90;3.40;;;;;;;5.23;100.00;95381.09;108760;1275;22531;-87
2024/01/06 05:26:26;;;;;;;8.30;3.50;;;;;;;5.25;100.00;95386.90;108480;1275;24956;-87
2024/01/06 05:28:53;;;;;;;6.30;3.10;;;;;;;5.29;100.00;95392.03;108188;1280;138385;-87
2024/01/06 05:31:19;;;;;;;5.20;2.50;;;;;;;5.34;100.00;95398.02;108477;1278;23776;-86
2024/01/06 05:33:46;;;;;;;6.90;3.70;;;;;;;5.37;100.00;95400.14;108265;1283;138114;-87
2024/01/06 05:36:12;;;;;;;8.00;4.10;;;;;;;5.38;100.00;95400.80;108434;1283;22646;-87
2024/01/06 05:38:39;;;;;;;5.90;3.30;;;;;;;5.40;100.00;95403.09;108350;1282;22558;-86
2024/01/06 05:41:06;;;;;;;3.60;2.80;;;;;;;5.40;100.00;95405.61;108376;1280;137397;-86
2024/01/06 05:43:32;;;;;;;4.60;2.90;;;;;;;5.40;100.00;95406.61;108524;1281;22558;-87
2024/01/06 05:45:59;;;;;;;4.10;2.60;;;;;;;5.40;100.00;95406.30;108260;1277;136727;-87
2024/01/06 05:48:26;;;;;;;5.40;2.50;;;;;;;5.41;100.00;95409.60;108459;1276;22705;-87
2024/01/06 05:50:52;;;;;;;5.10;2.90;;;;;;;5.42;100.00;95413.94;108420;1281;22568;-87
2024/01/06 05:53:19;;;;;;;4.90;3.10;;;;;;;5.46;100.00;95415.58;108380;1278;138481;-87
2024/01/06 05:55:46;;;;;;;3.60;2.90;;;;;;;5.52;100.00;95418.26;108459;1283;25246;-87
2024/01/06 05:58:12;;;;;;;6.00;2.80;;;;;;;5.53;100.00;95424.56;108210;1275;138917;-86
2024/01/06 06:00:39;;;;;;;4.40;3.20;;;;;;;5.51;100.00;95425.64;108441;1277;22530;-87
2024/01/06 06:03:07;;;;;;;5.70;2.60;;;;;;;5.53;100.00;95424.19;108207;1273;138852;-86
2024/01/06 06:05:34;;;;;;;3.80;2.50;;;;;;;5.54;100.00;95427.58;108338;1281;22524;-87
2024/01/06 06:08:01;;;;;;;4.80;3.30;;;;;;;5.55;100.00;95428.46;108393;1281;22553;-87
2024/01/06 06:10:40;;;;;;;2.80;2.40;;;;;;;5.56;100.00;95431.42;108342;1281;138326;-86
2024/01/06 06:13:10;;;;;;;3.90;2.40;;;;;;;5.55;100.00;95433.06;108381;1281;22544;-87
2024/01/06 06:15:37;;;;;;;4.00;2.40;;;;;;;5.56;100.00;95429.03;108285;1263;138596;-87
2024/01/06 06:18:07;;;;;;;4.00;2.40;;;;;;;5.58;100.00;95431.52;108486;1278;25460;-87
2024/01/06 06:20:33;;;;;;;4.10;2.10;;;;;;;5.63;100.00;95436.51;108341;1280;23354;-86
2024/01/06 06:23:00;;;;;;;4.70;2.30;;;;;;;5.64;100.00;95435.14;108293;1274;137858;-86
2024/01/06 06:25:27;;;;;;;6.20;2.80;;;;;;;5.62;100.00;95432.92;108475;1275;25206;-86
2024/01/06 06:27:53;;;;;;;3.80;2.40;;;;;;;5.58;100.00;95434.48;108471;1281;137476;-87
2024/01/06 06:30:20;;;;;;;4.80;2.40;;;;;;;5.54;100.00;95437.29;108460;1278;25437;-87
2024/01/06 06:32:47;;;;;;;4.50;2.60;;;;;;;5.55;100.00;95436.55;108476;1279;22559;-87
2024/01/06 06:35:14;;;;;;;5.70;2.40;;;;;;;5.56;100.00;95434.41;109030;1281;138122;-86
2024/01/06 06:37:42;;;;;;;2.50;1.80;;;;;;;5.56;100.00;95437.59;109730;1281;22560;-86
2024/01/06 06:40:33;;;;;;;4.10;2.10;;;;;;;5.57;100.00;95432.70;109793;1281;138622;-87
2024/01/06 06:43:03;;;;;;;5.10;3.00;;;;;;;5.58;100.00;95437.20;109720;1281;23019;-86
2024/01/06 06:45:43;;;;;;;6.10;2.90;;;;;;;5.62;100.00;95439.83;109626;1275;137679;-86
2024/01/06 06:48:12;;;;;;;5.20;2.80;;;;;;;5.73;100.00;95439.29;109876;1281;22491;-86
2024/01/06 06:50:40;;;;;;;7.50;4.50;;;;;;;5.80;100.00;95440.73;108513;1278;23934;-86
2024/01/06 06:53:08;;;;;;;5.90;4.20;;;;;;;5.78;100.00;95442.85;108370;1282;138174;-87
2024/01/06 06:55:34;;;;;;;6.90;4.80;;;;;;;5.71;100.00;95444.50;108406;1280;22973;-87
2024/01/06 06:58:01;;;;;;;8.40;4.70;;;;;;;5.69;100.00;95444.34;108233;1281;138081;-87
2024/01/06 07:00:28;;;;;;;10.00;5.60;;;;;;;5.71;100.00;95441.53;108413;1281;22585;-87
2024/01/06 07:02:54;;;;;;;7.50;4.70;;;;;;;5.75;100.00;95446.94;108437;1259;22522;-87
2024/01/06 07:05:21;;;;;;;10.50;4.60;;;;;;;5.76;100.00;95445.32;108423;1276;137817;-87
2024/01/06 07:07:48;;;;;;;8.60;4.40;;;;;;;5.77;100.00;95443.27;108364;1282;22703;-87
2024/01/06 07:10:16;;;;;;;6.30;4.60;;;;;;;5.82;100.00;95441.74;108270;1282;138175;-87
2024/01/06 07:12:44;;;;;;;8.60;4.60;;;;;;;5.78;100.00;95446.49;108356;1282;23924;-87
2024/01/06 07:15:11;;;;;;;6.90;3.20;;;;;;;5.72;100.00;95447.61;108203;1281;138232;-87
2024/01/06 07:17:38;;;;;;;6.70;2.90;;;;;;;5.67;100.00;95448.16;108392;1281;22612;-87
2024/01/06 07:20:06;;;;;;;9.40;4.50;;;;;;;5.62;100.00;95447.20;108464;1282;23849;-87
2024/01/06 07:22:37;;;;;;;5.40;2.30;;;;;;;5.58;100.00;95444.21;108298;1274;137685;-88
2024/01/06 07:25:04;;;;;;;4.70;2.70;;;;;;;5.56;100.00;95445.84;108335;1282;22543;-87
2024/01/06 07:27:30;;;;;;;4.50;2.70;;;;;;;5.55;100.00;95446.14;108274;1281;137568;-86
2024/01/06 07:29:57;;;;;;;5.50;3.00;;;;;;;5.54;100.00;95446.46;108368;1280;25335;-87
2024/01/06 07:32:24;;;;;;;4.90;2.80;;;;;;;5.52;100.00;95449.59;108236;1281;138503;-86
2024/01/06 07:34:51;;;;;;;7.70;4.00;;;;;;;5.52;100.00;95447.17;108378;1280;22541;-87
2024/01/06 07:37:17;;;;;;;5.00;3.20;;;;;;;5.53;100.00;95446.89;108383;1281;24297;-87
2024/01/06 07:39:44;;;;;;;5.60;3.40;;;;;;;5.54;100.00;95447.31;108175;1280;138347;-87
2024/01/06 07:42:11;;;;;;;4.40;3.00;;;;;;;5.57;100.00;95455.73;108362;1272;22565;-88
2024/01/06 07:44:38;;;;;;;5.20;3.30;;;;;;;5.61;100.00;95455.00;108722;1282;138433;-87
2024/01/06 07:47:05;;;;;;;4.10;3.30;;;;;;;5.67;100.00;95456.08;108605;1275;22543;-88
2024/01/06 07:49:32;;;;;;;6.40;4.00;;;;;;;5.72;100.00;95461.75;108345;1275;149441;-87
2024/01/06 07:51:59;;;;;;;5.70;3.90;;;;;;;5.80;100.00;95463.58;108611;1275;22530;-88
2024/01/06 07:54:26;;;;;;;9.20;4.80;;;;;;;5.83;100.00;95469.77;108625;1283;22563;-88
2024/01/06 07:56:53;;;;;;;7.50;4.40;;;;;;;5.85;100.00;95467.30;108352;1282;137510;-88
2024/01/06 07:59:20;;;;;;;9.10;4.30;;;;;;;5.88;100.00;95466.45;108485;1282;25473;-87
2024/01/06 08:01:46;;;;;;;6.30;4.20;;;;;;;5.90;100.00;95466.78;108245;1281;137691;-88
2024/01/06 08:04:13;;;;;;;7.40;4.20;;;;;;;5.90;100.00;95470.52;108415;1282;22587;-88
2024/01/06 08:06:40;;;;;;;7.10;4.60;;;;;;;5.93;100.00;95470.17;108487;1279;25301;-88
2024/01/06 08:09:08;;;;;;;5.00;3.80;;;;;;;5.92;100.00;95474.23;108256;1277;138933;-87
2024/01/06 08:11:35;;;;;;;5.90;3.20;;;;;;;5.91;100.00;95477.48;108357;1262;22575;-88
2024/01/06 08:14:02;;;;;;;6.20;4.30;;;;;;;5.92;100.00;95481.50;108651;1278;138331;-88
2024/01/06 08:16:29;;;;;;;6.20;4.00;;;;;;;5.95;100.00;95479.24;108451;1277;22568;-87
2024/01/06 08:18:56;;;;;;;5.80;3.30;;;;;;;5.97;100.00;95482.09;108335;1278;22531;-87
2024/01/06 08:21:23;;;;;;;5.80;3.70;;;;;;;5.98;100.00;95481.59;108335;1278;138826;-87
2024/01/06 08:23:50;;;;;;;6.90;3.80;;;;;;;5.98;100.00;95481.75;108317;1282;26801;-87
2024/01/06 08:26:17;;;;;;;6.60;3.70;;;;;;;5.97;100.00;95482.38;108254;1281;137528;-87
2024/01/06 08:28:44;;;;;;;6.00;3.80;;;;;;;5.97;100.00;95486.09;108412;1283;22815;-87
2024/01/06 08:31:10;;;;;;;6.20;3.20;;;;;;;5.97;100.00;95485.83;108399;1280;22601;-87
2024/01/06 08:33:37;;;;;;;5.00;3.50;;;;;;;5.99;100.00;95486.13;108220;1282;138662;-88
2024/01/06 08:36:04;;;;;;;4.10;3.00;;;;;;;6.01;100.00;95484.86;108378;1281;25601;-88
2024/01/06 08:38:31;;;;;;;5.50;2.90;;;;;;;6.04;100.00;95485.42;108272;1282;138190;-87
2024/01/06 08:40:58;;;;;;;5.30;3.00;;;;;;;6.08;100.00;95483.92;108394;1279;22539;-87
2024/01/06 08:43:24;;;;;;;5.90;2.80;;;;;;;6.12;100.00;95484.85;108181;1281;138398;-88
2024/01/06 08:45:55;;;;;;;5.40;2.90;;;;;;;6.17;100.00;95485.77;109497;1275;22257;-87
2024/01/06 08:48:40;;;;;;;8.10;3.60;;;;;;;6.24;100.00;95485.88;109889;1281;22338;-86
2024/01/06 08:51:14;;;;;;;5.90;3.00;;;;;;;6.31;100.00;95484.15;109879;1281;22548;-87
2024/01/06 08:53:44;;;;;;;5.90;3.30;;;;;;;6.39;100.00;95486.68;109794;1278;22319;-87
2024/01/06 08:56:10;;;;;;;5.70;3.00;;;;;;;6.52;100.00;95488.25;108327;1282;138169;-87
2024/01/06 08:58:37;;;;;;;3.60;3.00;;;;;;;6.62;100.00;95489.73;108351;1282;22537;-87
2024/01/06 09:01:04;;;;;;;5.30;3.20;;;;;;;6.70;100.00;95489.17;108380;1278;22541;-88
2024/01/06 09:03:30;;;;;;;7.00;3.90;;;;;;;6.73;100.00;95489.52;108552;1263;138197;-86
2024/01/06 09:05:57;;;;;;;7.80;3.60;;;;;;;6.72;100.00;95494.46;108488;1282;23219;-87
2024/01/06 09:08:24;;;;;;;6.50;4.20;;;;;;;6.75;100.00;95495.07;108254;1281;138732;-87
2024/01/06 09:10:56;;;;;;;7.40;3.50;;;;;;;6.81;100.00;95494.85;108380;1282;22519;-88
2024/01/06 09:13:23;;;;;;;6.90;3.40;;;;;;;6.85;100.00;95497.70;108517;1281;22538;-87
2024/01/06 09:15:51;;;;;;;8.80;5.80;;;;;;;6.87;100.00;95500.67;108297;1281;138462;-88
2024/01/06 09:18:17;;;;;;;13.30;9.10;;;;;;;6.86;100.00;95496.56;108419;1281;22585;-87
2024/01/06 09:20:47;;;;;;;16.80;12.60;;;;;;;6.84;100.00;95499.33;108239;1281;138412;-87
2024/01/06 09:23:14;;;;;;;19.20;14.00;;;;;;;6.86;100.00;95496.16;108598;1283;23369;-88
2024/01/06 09:25:40;;;;;;;25.80;19.30;;;;;;;6.88;100.00;95495.91;108228;1281;138649;-88
2024/01/06 09:28:07;;;;;;;34.10;24.20;;;;;;;6.85;100.00;95493.85;108363;1281;23941;-88
2024/01/06 09:30:34;;;;;;;40.70;29.00;;;;;;;6.84;100.00;95491.13;108348;1282;24299;-87
2024/01/06 09:33:00;;;;;;;63.90;40.30;;;;;;;6.82;100.00;95490.22;108245;1281;137850;-88
2024/01/06 09:35:27;;;;;;;63.60;44.40;;;;;;;6.83;100.00;95493.48;108410;1281;22555;-86
2024/01/06 09:37:54;;;;;;;70.30;47.40;;;;;;;6.82;100.00;95493.52;108393;1281;139268;-87
2024/01/06 09:40:22;;;;;;;70.90;51.30;;;;;;;6.82;100.00;95491.33;108296;1282;22888;-87
2024/01/06 09:42:50;;;;;;;71.10;53.50;;;;;;;6.82;100.00;95488.52;108393;1282;22543;-85
2024/01/06 09:45:16;;;;;;;74.60;55.00;;;;;;;6.82;100.00;95490.25;108249;1277;138496;-86
2024/01/06 09:47:43;;;;;;;75.50;56.90;;;;;;;6.84;100.00;95489.73;108404;1282;25401;-86
2024/01/06 09:50:30;;;;;;;71.90;54.70;;;;;;;6.87;100.00;95489.02;109198;1281;138196;-87
2024/01/06 09:53:12;;;;;;;53.90;41.30;;;;;;;6.88;100.00;95486.21;110025;1281;22552;-87
2024/01/06 09:56:29;;;;;;;79.30;55.70;;;;;;;6.80;100.00;95490.39;109701;1281;139297;-87
2024/01/06 09:58:59;;;;;;;81.60;58.20;;;;;;;6.63;100.00;95489.82;109863;1281;22185;-87
2024/01/06 10:01:52;;;;;;;83.90;57.50;;;;;;;6.49;100.00;95487.29;109802;1281;137829;-87
2024/01/06 10:04:36;;;;;;;86.60;59.60;;;;;;;6.46;100.00;95489.70;109829;1281;22349;-87
2024/01/06 10:07:05;;;;;;;68.90;49.80;;;;;;;6.41;100.00;95488.61;109865;1281;22665;-87
2024/01/06 10:10:07;;;;;;;71.40;50.00;;;;;;;6.40;100.00;95492.42;109706;1281;138549;-86
2024/01/06 10:12:43;;;;;;;57.80;41.30;;;;;;;6.34;100.00;95487.48;109915;1281;22934;-87
2024/01/06 10:15:46;;;;;;;46.50;34.00;;;;;;;6.32;100.00;95491.85;109806;1282;138327;-86
2024/01/06 10:18:58;;;;;;;43.20;31.60;;;;;;;6.36;100.00;95495.38;109881;1281;22551;-87
2024/01/06 10:21:49;;;;;;;36.30;27.70;;;;;;;6.40;100.00;95499.40;109653;1286;137929;-87
2024/01/06 10:24:48;;;;;;;40.80;27.80;;;;;;;6.37;100.00;95500.79;109688;1286;22507;-87
2024/01/06 10:27:16;;;;;;;41.10;27.70;;;;;;;6.34;100.00;95501.77;109621;1286;137425;-87
2024/01/06 10:29:49;;;;;;;38.00;27.70;;;;;;;6.31;100.00;95499.97;109763;1279;22683;-87
2024/01/06 10:32:36;;;;;;;32.00;23.70;;;;;;;6.25;100.00;95496.79;109426;1281;136947;-87
2024/01/06 10:35:05;;;;;;;31.50;22.00;;;;;;;6.23;100.00;95493.91;108065;1281;22673;-86
2024/01/06 10:37:32;;;;;;;28.70;21.00;;;;;;;6.23;100.00;95491.62;108087;1286;139095;-87
2024/01/06 10:40:13;;;;;;;32.60;21.80;;;;;;;6.24;100.00;95488.77;109075;1287;22192;-87
2024/01/06 10:42:41;;;;;;;25.50;18.00;;;;;;;6.25;100.00;95488.66;109821;1284;22700;-87
2024/01/06 10:45:15;;;;;;;23.60;17.90;;;;;;;6.20;100.00;95489.39;109730;1286;22563;-87
2024/01/06 10:48:10;;;;;;;28.30;21.40;;;;;;;6.21;100.00;95484.16;109719;1286;22661;-87
2024/01/06 10:51:16;;;;;;;42.40;30.10;;;;;;;6.27;100.00;95485.28;109588;1278;137602;-88
2024/01/06 10:53:56;;;;;;;42.80;31.40;;;;;;;6.28;100.00;95476.86;109771;1286;22669;-88
2024/01/06 10:56:43;;;;;;;40.50;30.60;;;;;;;6.33;100.00;95484.00;109550;1284;137527;-87
2024/01/06 10:59:22;;;;;;;40.70;30.70;;;;;;;6.36;100.00;95479.73;109687;1285;22222;-88
2024/01/06 11:01:56;;;;;;;39.10;29.80;;;;;;;6.42;100.00;95481.52;108802;1280;138703;-87
2024/01/06 11:05:07;;;;;;;48.60;34.70;;;;;;;6.45;100.00;95481.36;109109;1285;22577;-87
2024/01/06 11:08:00;;;;;;;41.10;29.30;;;;;;;6.38;100.00;95479.96;109897;1281;137092;-88
2024/01/06 11:10:50;;;;;;;35.70;24.10;;;;;;;6.32;100.00;95478.27;109963;1281;22566;-87
2024/01/06 11:13:23;;;;;;;28.90;20.20;;;;;;;6.25;100.00;95479.86;109868;1281;22801;-87
2024/01/06 11:15:57;;;;;;;27.60;20.30;;;;;;;6.16;100.00;95475.95;109690;1273;137289;-87
2024/01/06 11:19:10;;;;;;;27.00;19.70;;;;;;;6.14;100.00;95477.30;109882;1282;22620;-88
2024/01/06 11:22:22;;;;;;;31.80;21.90;;;;;;;6.13;100.00;95477.05;109811;1283;137197;-88
2024/01/06 11:25:28;;;;;;;41.60;29.90;;;;;;;6.13;100.00;95474.43;109649;1281;341216;-88
2024/01/06 11:28:02;;;;;;;43.40;28.40;;;;;;;6.14;100.00;95471.90;109697;1281;137435;-87